createdAt,value
2023-01-09T00:02:00.745Z,98960.50
2023-01-09T00:04:27.167Z,98958.34
2023-01-09T00:06:56.560Z,98967.00
2023-01-09T00:09:24.467Z,98962.94
2023-01-09T00:11:51.796Z,98952.78
2023-01-09T00:14:19.034Z,98947.38
2023-01-09T00:16:45.514Z,98946.06
2023-01-09T00:19:12.124Z,98944.06
2023-01-09T00:21:38.550Z,98939.16
2023-01-09T00:24:05.504Z,98935.34
2023-01-09T00:26:32.333Z,98931.19
2023-01-09T00:28:59.696Z,98925.94
2023-01-09T00:31:26.215Z,98927.28
2023-01-09T00:34:00.050Z,98915.47
2023-01-09T00:36:26.864Z,98916.53
2023-01-09T00:38:53.282Z,98913.00
2023-01-09T00:41:29.385Z,98913.00
2023-01-09T00:44:01.615Z,98913.22
2023-01-09T00:46:34.421Z,98914.81
2023-01-09T00:49:03.532Z,98920.31
2023-01-09T00:51:30.187Z,98923.88
2023-01-09T00:53:56.801Z,98920.63
2023-01-09T00:56:23.413Z,98915.75
2023-01-09T00:58:51.535Z,98924.78
2023-01-09T01:01:18.132Z,98925.88
2023-01-09T01:03:44.615Z,98929.47
2023-01-09T01:06:29.597Z,98929.47
2023-01-09T01:08:56.415Z,98932.78
2023-01-09T01:11:23.441Z,98937.41
2023-01-09T01:13:49.903Z,98937.41
2023-01-09T01:16:18.182Z,98941.00
2023-01-09T01:18:44.719Z,98940.44
2023-01-09T01:21:13.994Z,98937.31
2023-01-09T01:23:40.930Z,98949.41
2023-01-09T01:26:14.971Z,98943.09
2023-01-09T01:28:41.952Z,98939.75
2023-01-09T01:31:09.046Z,98950.47
2023-01-09T01:33:36.209Z,98948.81
2023-01-09T01:36:08.372Z,98952.38
2023-01-09T01:38:35.585Z,98948.47
2023-01-09T01:41:03.675Z,98946.84
2023-01-09T01:43:50.144Z,98942.44
2023-01-09T01:46:17.897Z,98946.84
2023-01-09T01:48:45.084Z,98951.50
2023-01-09T01:51:14.226Z,98946.84
2023-01-09T01:53:45.206Z,98947.91
2023-01-09T01:56:16.817Z,98952.56
2023-01-09T01:58:52.292Z,98947.91
2023-01-09T02:01:20.784Z,98951.72
2023-01-09T02:03:47.850Z,98951.97
2023-01-09T02:06:14.974Z,98959.13
2023-01-09T02:08:42.138Z,98958.28
2023-01-09T02:11:08.901Z,98963.78
2023-01-09T02:13:38.659Z,98964.03
2023-01-09T02:16:30.449Z,98964.56
2023-01-09T02:19:18.894Z,98966.34
2023-01-09T02:22:05.960Z,98965.19
2023-01-09T02:25:07.604Z,98963.19
2023-01-09T02:27:52.032Z,98968.94
2023-01-09T02:30:30.965Z,98967.28
2023-01-09T02:33:18.188Z,98973.81
2023-01-09T02:36:00.319Z,98968.00
2023-01-09T02:38:30.341Z,98988.53
2023-01-09T02:41:04.928Z,98994.25
2023-01-09T02:43:32.097Z,99001.06
2023-01-09T02:45:58.666Z,98997.16
2023-01-09T02:48:25.162Z,98991.34
2023-01-09T02:51:13.095Z,98995.06
2023-01-09T02:53:55.219Z,98998.53
2023-01-09T02:56:30.799Z,98982.44
2023-01-09T02:59:17.883Z,98982.84
2023-01-09T03:01:56.004Z,99004.69
2023-01-09T03:04:41.415Z,99013.03
2023-01-09T03:07:45.506Z,99010.06
2023-01-09T03:10:20.653Z,99021.19
2023-01-09T03:12:51.240Z,99029.88
2023-01-09T03:15:20.950Z,99036.69
2023-01-09T03:17:50.485Z,99040.13
2023-01-09T03:20:22.460Z,99046.91
2023-01-09T03:22:57.602Z,99045.75
2023-01-09T03:25:24.838Z,99040.72
2023-01-09T03:28:04.647Z,99047.53
2023-01-09T03:30:32.611Z,99052.44
2023-01-09T03:32:59.414Z,99058.97
2023-01-09T03:35:26.524Z,99064.66
2023-01-09T03:37:53.037Z,99070.41
2023-01-09T03:40:20.394Z,99078.00
2023-01-09T03:42:47.571Z,99088.59
2023-01-09T03:45:14.151Z,99075.97
2023-01-09T03:47:40.496Z,99075.16
2023-01-09T03:50:07.665Z,99080.66
2023-01-09T03:52:36.003Z,99081.44
2023-01-09T03:55:02.446Z,99072.44
2023-01-09T03:57:28.837Z,99086.13
2023-01-09T03:59:55.273Z,99092.66
2023-01-09T04:02:21.678Z,99089.22
2023-01-09T04:04:48.159Z,99091.09
2023-01-09T04:07:14.616Z,99083.13
2023-01-09T04:09:41.042Z,99096.69
2023-01-09T04:12:07.491Z,99100.97
2023-01-09T04:14:33.885Z,99095.38
2023-01-09T04:17:00.329Z,99109.53
2023-01-09T04:19:26.753Z,99112.13
2023-01-09T04:21:53.196Z,99103.56
2023-01-09T04:24:19.571Z,99103.44
2023-01-09T04:26:46.000Z,99117.59
2023-01-09T04:29:12.390Z,99111.72
2023-01-09T04:31:38.849Z,99110.78
2023-01-09T04:34:05.253Z,99113.63
2023-01-09T04:36:34.504Z,99125.47
2023-01-09T04:39:00.905Z,99132.94
2023-01-09T04:41:45.745Z,99122.72
2023-01-09T04:44:12.159Z,99127.44
2023-01-09T04:46:38.565Z,99133.97
2023-01-09T04:49:04.960Z,99130.88
2023-01-09T04:51:31.517Z,99130.03
2023-01-09T04:53:57.908Z,99138.47
2023-01-09T04:56:24.301Z,99146.06
2023-01-09T04:58:50.694Z,99133.69
2023-01-09T05:01:17.180Z,99133.94
2023-01-09T05:03:43.602Z,99138.19
2023-01-09T05:06:09.996Z,99146.84
2023-01-09T05:08:36.401Z,99146.22
2023-01-09T05:11:02.841Z,99156.56
2023-01-09T05:13:29.275Z,99161.41
2023-01-09T05:15:55.706Z,99175.31
2023-01-09T05:18:22.280Z,99176.63
2023-01-09T05:20:48.672Z,99185.88
2023-01-09T05:23:15.243Z,99187.97
2023-01-09T05:25:41.637Z,99186.56
2023-01-09T05:28:08.075Z,99185.97
2023-01-09T05:30:34.465Z,99182.38
2023-01-09T05:33:00.878Z,99180.94
2023-01-09T05:35:27.290Z,99178.91
2023-01-09T05:37:53.718Z,99176.59
2023-01-09T05:40:20.138Z,99175.41
2023-01-09T05:42:46.568Z,99176.91
2023-01-09T05:45:12.957Z,99181.16
2023-01-09T05:47:39.845Z,99183.28
2023-01-09T05:50:06.655Z,99186.63
2023-01-09T05:52:33.096Z,99180.31
2023-01-09T05:54:59.451Z,99190.19
2023-01-09T05:57:25.871Z,99188.91
2023-01-09T05:59:52.271Z,99179.41
2023-01-09T06:02:18.729Z,99198.31
2023-01-09T06:04:45.156Z,99200.41
2023-01-09T06:07:15.443Z,99207.19
2023-01-09T06:09:44.203Z,99209.25
2023-01-09T06:12:10.597Z,99206.88
2023-01-09T06:14:37.064Z,99206.22
2023-01-09T06:17:03.487Z,99204.72
2023-01-09T06:19:30.077Z,99206.53
2023-01-09T06:21:56.459Z,99211.69
2023-01-09T06:24:22.966Z,99218.28
2023-01-09T06:26:49.420Z,99210.75
2023-01-09T06:29:15.877Z,99214.41
2023-01-09T06:31:42.287Z,99216.34
2023-01-09T06:34:08.752Z,99212.22
2023-01-09T06:36:35.392Z,99209.78
2023-01-09T06:39:01.826Z,99225.03
2023-01-09T06:41:28.322Z,99221.13
2023-01-09T06:43:54.779Z,99230.31
2023-01-09T06:46:21.329Z,99241.41
2023-01-09T06:48:47.786Z,99239.16
2023-01-09T06:51:14.245Z,99240.97
2023-01-09T06:53:40.625Z,99231.81
2023-01-09T06:56:07.076Z,99247.53
2023-01-09T06:58:33.439Z,99240.75
2023-01-09T07:00:59.933Z,99240.41
2023-01-09T07:03:26.362Z,99244.56
2023-01-09T07:05:52.798Z,99244.94
2023-01-09T07:08:19.227Z,99257.09
2023-01-09T07:10:45.719Z,99254.50
2023-01-09T07:13:12.166Z,99254.03
2023-01-09T07:15:38.662Z,99266.66
2023-01-09T07:18:05.141Z,99267.72
2023-01-09T07:20:31.599Z,99268.78
2023-01-09T07:22:58.043Z,99266.41
2023-01-09T07:25:24.444Z,99261.53
2023-01-09T07:27:50.846Z,99261.41
2023-01-09T07:30:17.538Z,99274.72
2023-01-09T07:32:43.979Z,99268.06
2023-01-09T07:35:11.215Z,99266.50
2023-01-09T07:37:37.775Z,99268.88
2023-01-09T07:40:04.604Z,99271.03
2023-01-09T07:42:31.135Z,99260.94
2023-01-09T07:44:57.612Z,99261.00
2023-01-09T07:47:24.083Z,99253.63
2023-01-09T07:49:50.512Z,99266.13
2023-01-09T07:52:16.941Z,99271.97
2023-01-09T07:54:43.329Z,99261.00
2023-01-09T07:57:09.748Z,99260.16
2023-01-09T07:59:36.182Z,99267.31
2023-01-09T08:02:05.566Z,99265.22
2023-01-09T08:04:32.290Z,99270.69
2023-01-09T08:06:58.884Z,99266.25
2023-01-09T08:09:25.401Z,99269.00
2023-01-09T08:11:51.944Z,99270.31
2023-01-09T08:14:18.329Z,99272.69
2023-01-09T08:16:44.711Z,99273.75
2023-01-09T08:19:12.147Z,99283.03
2023-01-09T08:21:39.536Z,99277.06
2023-01-09T08:24:06.481Z,99277.44
2023-01-09T08:26:33.228Z,99284.38
2023-01-09T08:28:59.606Z,99282.00
2023-01-09T08:31:26.063Z,99287.00
2023-01-09T08:33:53.444Z,99285.22
2023-01-09T08:36:19.934Z,99284.28
2023-01-09T08:38:46.358Z,99289.66
2023-01-09T08:41:31.289Z,99288.97
2023-01-09T08:44:16.441Z,99284.69
2023-01-09T08:47:01.340Z,99294.53
2023-01-09T08:49:27.740Z,99294.44
2023-01-09T08:51:54.204Z,99296.47
2023-01-09T08:54:20.622Z,99292.06
2023-01-09T08:56:47.158Z,99295.31
2023-01-09T08:59:13.844Z,99305.69
2023-01-09T09:01:40.424Z,99296.88
2023-01-09T09:04:06.957Z,99302.47
2023-01-09T09:06:34.107Z,99292.22
2023-01-09T09:09:03.912Z,99291.38
2023-01-09T09:11:30.797Z,99290.38
2023-01-09T09:13:58.070Z,99292.63
2023-01-09T09:16:25.548Z,99292.16
2023-01-09T09:18:52.212Z,99304.09
2023-01-09T09:21:18.854Z,99307.66
2023-01-09T09:23:45.297Z,99307.19
2023-01-09T09:26:12.211Z,99300.63
2023-01-09T09:28:38.776Z,99300.63
2023-01-09T09:31:06.120Z,99302.97
2023-01-09T09:33:32.700Z,99299.25
2023-01-09T09:35:59.656Z,99305.59
2023-01-09T09:38:26.155Z,99305.94
2023-01-09T09:41:07.801Z,99297.78
2023-01-09T09:44:14.736Z,99312.81
2023-01-09T09:47:01.336Z,99307.78
2023-01-09T09:49:45.882Z,99319.50
2023-01-09T09:52:35.242Z,99312.31
2023-01-09T09:55:11.085Z,99310.16
2023-01-09T09:57:38.548Z,99320.03
2023-01-09T10:00:07.392Z,99317.91
2023-01-09T10:02:50.502Z,99315.59
2023-01-09T10:05:40.627Z,99318.38
2023-01-09T10:08:23.477Z,99324.81
2023-01-09T10:10:55.242Z,99329.28
2023-01-09T10:13:43.441Z,99327.63
2023-01-09T10:16:43.930Z,99330.75
2023-01-09T10:19:36.407Z,99324.38
2023-01-09T10:22:18.393Z,99324.81
2023-01-09T10:25:00.459Z,99327.00
2023-01-09T10:27:34.446Z,99319.69
2023-01-09T10:30:25.688Z,99321.63
2023-01-09T10:33:01.395Z,99321.97
2023-01-09T10:35:56.249Z,99320.31
2023-01-09T10:38:28.657Z,99316.69
2023-01-09T10:41:06.148Z,99313.34
2023-01-09T10:43:42.168Z,99310.56
2023-01-09T10:46:15.092Z,99309.34
2023-01-09T10:48:47.845Z,99331.13
2023-01-09T10:51:25.488Z,99319.19
2023-01-09T10:53:55.041Z,99314.72
2023-01-09T10:56:25.715Z,99322.09
2023-01-09T10:58:53.894Z,99320.22
2023-01-09T11:01:33.428Z,99319.81
2023-01-09T11:04:02.240Z,99309.94
2023-01-09T11:06:45.417Z,99308.91
2023-01-09T11:09:11.961Z,99309.09
2023-01-09T11:11:42.818Z,99323.00
2023-01-09T11:14:31.094Z,99318.13
2023-01-09T11:16:59.470Z,99329.34
2023-01-09T11:19:26.973Z,99331.38
2023-01-09T11:22:07.787Z,99327.84
2023-01-09T11:24:34.268Z,99332.63
2023-01-09T11:27:12.732Z,99333.84
2023-01-09T11:29:39.929Z,99346.91
2023-01-09T11:32:16.575Z,99343.63
2023-01-09T11:34:45.993Z,99342.22
2023-01-09T11:37:25.601Z,99340.28
2023-01-09T11:39:52.904Z,99342.97
2023-01-09T11:42:43.444Z,99358.22
2023-01-09T11:45:21.798Z,99341.47
2023-01-09T11:47:48.279Z,99352.38
2023-01-09T11:50:26.465Z,99339.00
2023-01-09T11:53:11.395Z,99337.41
2023-01-09T11:55:42.411Z,99334.59
2023-01-09T11:58:19.456Z,99339.47
2023-01-09T12:01:00.413Z,99341.56
2023-01-09T12:03:38.107Z,99333.50
2023-01-09T12:06:32.953Z,99350.00
2023-01-09T12:09:03.174Z,99341.66
2023-01-09T12:11:50.153Z,99337.97
2023-01-09T12:14:44.040Z,99338.25
2023-01-09T12:17:41.044Z,99345.78
2023-01-09T12:20:27.672Z,99353.75
2023-01-09T12:23:00.896Z,99343.16
2023-01-09T12:25:41.617Z,99356.59
2023-01-09T12:28:23.760Z,99339.47
2023-01-09T12:31:10.080Z,99353.16
2023-01-09T12:34:01.691Z,99352.59
2023-01-09T12:36:59.367Z,99361.53
2023-01-09T12:39:51.639Z,99363.34
2023-01-09T12:42:18.170Z,99363.94
2023-01-09T12:44:51.445Z,99358.44
2023-01-09T12:47:33.126Z,99363.00
2023-01-09T12:50:06.425Z,99368.19
2023-01-09T12:52:39.826Z,99370.38
2023-01-09T12:55:20.398Z,99369.25
2023-01-09T12:57:51.019Z,99391.19
2023-01-09T13:00:30.016Z,99375.19
2023-01-09T13:03:12.582Z,99378.00
2023-01-09T13:05:50.145Z,99385.25
2023-01-09T13:08:24.257Z,99390.34
2023-01-09T13:10:59.920Z,99416.56
2023-01-09T13:13:35.154Z,99418.28
2023-01-09T13:16:11.836Z,99431.22
2023-01-09T13:18:48.007Z,99409.44
2023-01-09T13:21:14.928Z,99408.38
2023-01-09T13:24:07.386Z,99408.88
2023-01-09T13:26:43.641Z,99410.53
2023-01-09T13:29:19.717Z,99407.19
2023-01-09T13:31:52.028Z,99407.19
2023-01-09T13:34:25.011Z,99409.34
2023-01-09T13:36:54.237Z,99418.72
2023-01-09T13:39:26.829Z,99411.53
2023-01-09T13:42:23.529Z,99408.78
2023-01-09T13:44:54.309Z,99420.97
2023-01-09T13:47:27.836Z,99420.13
2023-01-09T13:50:06.101Z,99416.53
2023-01-09T13:52:39.443Z,99410.53
2023-01-09T13:55:11.840Z,99409.94
2023-01-09T13:57:43.567Z,99410.97
2023-01-09T14:00:12.876Z,99406.69
2023-01-09T14:02:39.192Z,99420.03
2023-01-09T14:05:15.470Z,99422.78
2023-01-09T14:07:48.977Z,99440.13
2023-01-09T14:10:27.185Z,99454.69
2023-01-09T14:12:56.684Z,99449.03
2023-01-09T14:15:37.766Z,99455.44
2023-01-09T14:18:15.591Z,99462.22
2023-01-09T14:20:45.841Z,99466.38
2023-01-09T14:23:52.051Z,99471.66
2023-01-09T14:26:38.231Z,99475.09
2023-01-09T14:29:35.812Z,99479.28
2023-01-09T14:32:21.098Z,99489.78
2023-01-09T14:34:56.455Z,99494.28
2023-01-09T14:37:24.309Z,99497.75
2023-01-09T14:39:51.361Z,99511.84
2023-01-09T14:42:23.742Z,99512.47
2023-01-09T14:45:03.073Z,99508.91
2023-01-09T14:47:36.155Z,99526.88
2023-01-09T14:50:17.457Z,99532.53
2023-01-09T14:52:54.604Z,99544.88
2023-01-09T14:55:25.680Z,99558.38
2023-01-09T14:57:54.880Z,99559.16
2023-01-09T15:00:23.167Z,99569.22
2023-01-09T15:02:53.113Z,99569.41
2023-01-09T15:05:26.285Z,99576.97
2023-01-09T15:07:57.491Z,99580.22
2023-01-09T15:10:30.615Z,99586.69
2023-01-09T15:12:59.822Z,99594.66
2023-01-09T15:15:26.858Z,99596.38
2023-01-09T15:17:59.016Z,99606.00
2023-01-09T15:20:31.969Z,99612.22
2023-01-09T15:23:04.266Z,99607.22
2023-01-09T15:25:39.252Z,99617.72
2023-01-09T15:28:27.906Z,99623.88
2023-01-09T15:31:09.856Z,99636.19
2023-01-09T15:33:40.257Z,99639.19
2023-01-09T15:36:24.308Z,99645.84
2023-01-09T15:38:51.957Z,99648.94
2023-01-09T15:41:43.719Z,99653.38
2023-01-09T15:44:23.461Z,99657.19
2023-01-09T15:46:50.817Z,99676.22
2023-01-09T15:49:18.091Z,99680.88
2023-01-09T15:51:46.346Z,99675.88
2023-01-09T15:54:33.390Z,99688.63
2023-01-09T15:57:27.859Z,99690.44
2023-01-09T15:59:55.575Z,99688.41
2023-01-09T16:02:42.976Z,99689.72
2023-01-09T16:05:16.863Z,99693.66
2023-01-09T16:07:48.227Z,99706.78
2023-01-09T16:10:29.908Z,99712.03
2023-01-09T16:12:57.111Z,99723.38
2023-01-09T16:15:23.648Z,99724.06
2023-01-09T16:18:15.520Z,99732.56
2023-01-09T16:20:42.890Z,99740.53
2023-01-09T16:23:23.263Z,99747.72
2023-01-09T16:25:49.986Z,99756.91
2023-01-09T16:28:26.697Z,99760.13
2023-01-09T16:30:59.673Z,99782.56
2023-01-09T16:33:28.697Z,99781.00
2023-01-09T16:35:55.616Z,99783.34
2023-01-09T16:38:22.741Z,99800.28
2023-01-09T16:41:18.108Z,99805.66
2023-01-09T16:43:45.665Z,99802.75
2023-01-09T16:46:16.216Z,99818.00
2023-01-09T16:48:42.816Z,99818.47
2023-01-09T16:51:18.497Z,99812.59
2023-01-09T16:53:45.262Z,99828.22
2023-01-09T16:56:18.482Z,99828.53
2023-01-09T16:58:46.297Z,99825.66
2023-01-09T17:01:14.854Z,99831.38
2023-01-09T17:03:44.792Z,99831.38
2023-01-09T17:06:19.346Z,99834.94
2023-01-09T17:08:46.908Z,99846.97
2023-01-09T17:11:20.881Z,99838.75
2023-01-09T17:13:48.136Z,99844.25
2023-01-09T17:16:16.535Z,99860.88
2023-01-09T17:18:43.596Z,99854.91
2023-01-09T17:21:22.758Z,99863.75
2023-01-09T17:24:09.616Z,99859.94
2023-01-09T17:26:55.983Z,99852.78
2023-01-09T17:29:22.517Z,99862.94
2023-01-09T17:31:48.958Z,99861.00
2023-01-09T17:34:15.490Z,99868.88
2023-01-09T17:36:43.468Z,99874.22
2023-01-09T17:39:14.286Z,99868.09
2023-01-09T17:41:40.767Z,99876.88
2023-01-09T17:44:07.740Z,99885.38
2023-01-09T17:46:36.266Z,99888.97
2023-01-09T17:49:04.104Z,99893.63
2023-01-09T17:51:30.842Z,99893.91
2023-01-09T17:53:57.652Z,99901.34
2023-01-09T17:56:27.116Z,99903.03
2023-01-09T17:58:53.621Z,99909.13
2023-01-09T18:01:20.682Z,99913.56
2023-01-09T18:03:48.825Z,99910.34
2023-01-09T18:06:18.118Z,99921.56
2023-01-09T18:08:44.956Z,99924.06
2023-01-09T18:11:17.943Z,99930.19
2023-01-09T18:13:46.678Z,99929.16
2023-01-09T18:16:16.124Z,99933.38
2023-01-09T18:18:43.044Z,99935.94
2023-01-09T18:21:09.549Z,99930.91
2023-01-09T18:23:36.443Z,99936.56
2023-01-09T18:26:07.618Z,99945.03
2023-01-09T18:28:38.221Z,99936.34
2023-01-09T18:31:06.224Z,99956.22
2023-01-09T18:33:32.684Z,99960.00
2023-01-09T18:36:08.662Z,99957.13
2023-01-09T18:38:35.800Z,99971.94
2023-01-09T18:41:03.798Z,99969.47
2023-01-09T18:43:30.792Z,99973.91
2023-01-09T18:45:57.336Z,99969.94
2023-01-09T18:48:23.996Z,99978.16
2023-01-09T18:50:50.399Z,99990.56
2023-01-09T18:53:16.777Z,99995.63
2023-01-09T18:55:43.189Z,100002.38
2023-01-09T18:58:09.564Z,99997.53
2023-01-09T19:00:36.621Z,100006.19
2023-01-09T19:03:03.073Z,100012.72
2023-01-09T19:05:32.062Z,100017.16
2023-01-09T19:07:58.655Z,100024.94
2023-01-09T19:10:25.159Z,100022.22
2023-01-09T19:12:51.568Z,100026.00
2023-01-09T19:15:17.954Z,100028.09
2023-01-09T19:17:44.311Z,100032.53
2023-01-09T19:20:11.363Z,100028.34
2023-01-09T19:22:37.771Z,100030.63
2023-01-09T19:25:04.482Z,100046.25
2023-01-09T19:27:30.925Z,100049.81
2023-01-09T19:29:57.347Z,100060.16
2023-01-09T19:32:23.793Z,100073.16
2023-01-09T19:34:50.219Z,100064.53
2023-01-09T19:37:18.110Z,100077.41
2023-01-09T19:39:46.427Z,100081.00
2023-01-09T19:42:13.624Z,100076.56
2023-01-09T19:44:40.715Z,100077.44
2023-01-09T19:47:07.284Z,100074.91
2023-01-09T19:49:33.695Z,100096.44
2023-01-09T19:52:00.659Z,100090.97
2023-01-09T19:54:29.125Z,100100.84
2023-01-09T19:56:55.817Z,100109.06
2023-01-09T19:59:22.298Z,100107.41
2023-01-09T20:01:49.057Z,100111.84
2023-01-09T20:04:17.212Z,100113.50
2023-01-09T20:06:46.644Z,100112.91
2023-01-09T20:09:15.863Z,100118.38
2023-01-09T20:11:44.530Z,100127.22
2023-01-09T20:14:12.895Z,100124.88
2023-01-09T20:16:39.522Z,100129.34
2023-01-09T20:19:08.401Z,100133.16
2023-01-09T20:21:35.761Z,100142.22
2023-01-09T20:24:05.204Z,100149.41
2023-01-09T20:26:32.920Z,100150.66
2023-01-09T20:28:59.699Z,100155.09
2023-01-09T20:31:28.263Z,100161.00
2023-01-09T20:33:55.571Z,100168.19
2023-01-09T20:36:27.337Z,100169.44
2023-01-09T20:38:56.407Z,100172.59
2023-01-09T20:41:23.657Z,100174.72
2023-01-09T20:43:55.684Z,100177.88
2023-01-09T20:46:24.370Z,100177.88
2023-01-09T20:48:51.130Z,100187.13
2023-01-09T20:51:17.857Z,100198.53
2023-01-09T20:53:45.974Z,100200.03
2023-01-09T20:56:13.275Z,100206.13
2023-01-09T20:58:42.163Z,100200.22
2023-01-09T21:01:11.425Z,100214.78
2023-01-09T21:03:38.749Z,100215.22
2023-01-09T21:06:07.608Z,100232.94
2023-01-09T21:08:34.699Z,100251.53
2023-01-09T21:11:01.920Z,100239.09
2023-01-09T21:13:29.079Z,100258.47
2023-01-09T21:16:04.245Z,100257.00
2023-01-09T21:18:31.068Z,100273.66
2023-01-09T21:20:57.618Z,100276.41
2023-01-09T21:23:24.165Z,100285.91
2023-01-09T21:25:50.566Z,100283.78
2023-01-09T21:28:18.567Z,100297.47
2023-01-09T21:30:49.515Z,100310.13
2023-01-09T21:33:21.553Z,100309.91
2023-01-09T21:35:56.029Z,100316.63
2023-01-09T21:38:23.670Z,100312.84
2023-01-09T21:40:51.389Z,100315.34
2023-01-09T21:43:45.373Z,100319.97
2023-01-09T21:46:34.240Z,100326.72
2023-01-09T21:49:04.155Z,100337.47
2023-01-09T21:51:30.706Z,100338.53
2023-01-09T21:53:57.139Z,100341.88
2023-01-09T21:56:23.576Z,100349.06
2023-01-09T21:58:49.999Z,100361.72
2023-01-09T22:01:16.714Z,100370.34
2023-01-09T22:03:43.602Z,100362.75
2023-01-09T22:06:10.065Z,100367.38
2023-01-09T22:08:36.677Z,100380.03
2023-01-09T22:11:04.536Z,100389.97
2023-01-09T22:13:31.551Z,100396.06
2023-01-09T22:16:03.603Z,100410.19
2023-01-09T22:18:30.178Z,100420.31
2023-01-09T22:20:56.723Z,100418.63
2023-01-09T22:23:23.153Z,100411.44
2023-01-09T22:25:50.105Z,100401.53
2023-01-09T22:28:16.548Z,100405.13
2023-01-09T22:30:42.958Z,100409.31
2023-01-09T22:33:12.893Z,100424.53
2023-01-09T22:35:43.735Z,100419.88
2023-01-09T22:38:11.734Z,100420.28
2023-01-09T22:40:39.270Z,100431.03
2023-01-09T22:43:06.106Z,100434.41
2023-01-09T22:45:33.000Z,100444.97
2023-01-09T22:47:59.472Z,100454.88
2023-01-09T22:50:25.887Z,100457.59
2023-01-09T22:52:52.349Z,100463.09
2023-01-09T22:55:18.766Z,100463.94
2023-01-09T22:57:45.209Z,100473.19
2023-01-09T23:00:12.272Z,100478.66
2023-01-09T23:02:38.722Z,100482.88
2023-01-09T23:05:05.616Z,100482.88
2023-01-09T23:07:32.061Z,100480.78
2023-01-09T23:10:00.477Z,100491.56
2023-01-09T23:12:26.914Z,100502.50
2023-01-09T23:14:53.385Z,100491.56
2023-01-09T23:17:19.795Z,100499.13
2023-01-09T23:19:46.319Z,100500.56
2023-01-09T23:22:12.685Z,100516.38
2023-01-09T23:24:39.054Z,100520.16
2023-01-09T23:27:05.738Z,100513.19
2023-01-09T23:29:32.137Z,100525.38
2023-01-09T23:31:58.520Z,100532.97
2023-01-09T23:34:27.322Z,100539.47
2023-01-09T23:36:57.400Z,100541.38
2023-01-09T23:39:24.048Z,100549.81
2023-01-09T23:42:08.824Z,100562.44
2023-01-09T23:44:36.364Z,100562.84
2023-01-09T23:47:03.386Z,100575.31
2023-01-09T23:49:29.809Z,100575.31
2023-01-09T23:51:56.503Z,100578.69
2023-01-09T23:54:23.023Z,100576.78
2023-01-09T23:56:49.479Z,100577.81
2023-01-09T23:59:17.538Z,100577.81
